Time;durP1;ratioP1;P1;durP2;ratioP2;P2;SDS_P1;SDS_P2;PMS_P1;PMS_P2;Temp;Humidity;BMP_temperature;BMP_pressure;BME280_temperature;BME280_humidity;BME280_pressure;Samples;Min_cycle;Max_cycle;Signal;HPM_P1;HPM_P2
2024/03/21 00:01:02;;;;;;;74.70;50.70;;;;;;;6.52;74.62;101731.55;104791;1259;62926;-61
2024/03/21 00:03:47;;;;;;;64.50;47.90;;;;;;;6.52;74.71;101727.05;104691;1256;139965;-61
2024/03/21 00:06:14;;;;;;;68.30;48.30;;;;;;;6.53;74.76;101724.14;104727;1256;62178;-61
2024/03/21 00:08:41;;;;;;;68.90;50.10;;;;;;;6.52;74.67;101724.44;104790;1256;73293;-62
2024/03/21 00:11:08;;;;;;;69.70;51.40;;;;;;;6.50;74.74;101720.14;104627;1257;138890;-62
2024/03/21 00:13:35;;;;;;;74.20;50.90;;;;;;;6.52;74.85;101724.40;104565;1258;62474;-62
2024/03/21 00:16:06;;;;;;;69.00;51.00;;;;;;;6.52;74.86;101723.55;104720;1256;138008;-62
2024/03/21 00:18:33;;;;;;;71.10;50.80;;;;;;;6.51;74.87;101726.29;105471;1259;67343;-62
2024/03/21 00:20:59;;;;;;;73.30;53.40;;;;;;;6.49;74.84;101725.13;104703;1260;138483;-62
2024/03/21 00:23:26;;;;;;;67.50;51.70;;;;;;;6.45;74.92;101727.13;104893;1261;62090;-62
2024/03/21 00:25:53;;;;;;;76.00;51.40;;;;;;;6.43;74.93;101726.52;104829;1256;62084;-62
2024/03/21 00:28:19;;;;;;;72.20;51.00;;;;;;;6.41;75.00;101725.33;104614;1259;138835;-62
2024/03/21 00:30:50;;;;;;;70.90;51.40;;;;;;;6.40;75.10;101724.63;104742;1259;66280;-61
2024/03/21 00:33:17;;;;;;;68.30;50.70;;;;;;;6.42;75.16;101724.77;108756;1256;138931;-63
2024/03/21 00:35:44;;;;;;;66.60;48.60;;;;;;;6.42;75.19;101722.10;105553;1256;61947;-62
2024/03/21 00:38:11;;;;;;;67.40;49.60;;;;;;;6.41;75.22;101720.98;104711;1263;60791;-62
2024/03/21 00:40:38;;;;;;;66.50;49.80;;;;;;;6.43;75.29;101719.92;104840;1262;139357;-62
2024/03/21 00:43:04;;;;;;;64.50;51.40;;;;;;;6.46;75.32;101721.09;104908;1256;65361;-62
2024/03/21 00:45:31;;;;;;;65.60;49.50;;;;;;;6.47;75.29;101716.77;104551;1262;139432;-62
2024/03/21 00:47:57;;;;;;;72.20;52.20;;;;;;;6.48;75.30;101717.55;104808;1258;62151;-62
2024/03/21 00:50:24;;;;;;;71.70;51.10;;;;;;;6.49;75.36;101717.45;104815;1256;62489;-62
2024/03/21 00:52:50;;;;;;;68.50;50.30;;;;;;;6.50;75.34;101715.93;104682;1256;138520;-62
2024/03/21 00:55:17;;;;;;;66.40;50.70;;;;;;;6.51;75.25;101711.78;104856;1256;66563;-61
2024/03/21 00:57:43;;;;;;;68.40;49.90;;;;;;;6.51;75.35;101707.10;104577;1259;138107;-61
2024/03/21 01:00:13;;;;;;;70.70;50.30;;;;;;;6.53;75.33;101704.77;104700;1260;61957;-61
2024/03/21 01:02:40;;;;;;;69.40;53.30;;;;;;;6.56;75.41;101704.41;108956;1256;60578;-61
2024/03/21 01:05:08;;;;;;;71.90;52.70;;;;;;;6.56;75.30;101704.75;108663;1256;138508;-62
2024/03/21 01:07:35;;;;;;;67.20;52.20;;;;;;;6.54;75.25;101697.33;108984;1262;66231;-62
2024/03/21 01:10:01;;;;;;;71.60;54.30;;;;;;;6.55;75.25;101695.27;108872;1256;138569;-62
2024/03/21 01:12:28;;;;;;;71.50;53.50;;;;;;;6.55;75.27;101689.55;108980;1256;59875;-62
2024/03/21 01:14:55;;;;;;;71.10;52.10;;;;;;;6.56;75.24;101684.86;109058;1256;60387;-62
2024/03/21 01:17:22;;;;;;;66.60;52.30;;;;;;;6.55;75.27;101682.23;108783;1256;138939;-62
2024/03/21 01:19:49;;;;;;;68.30;51.80;;;;;;;6.54;75.16;101680.56;109112;1256;67216;-62
2024/03/21 01:22:15;;;;;;;68.20;50.40;;;;;;;6.55;75.25;101678.55;108728;1256;141114;-62
2024/03/21 01:24:45;;;;;;;68.50;49.50;;;;;;;6.56;75.05;101683.66;108987;1256;60897;-63
2024/03/21 01:27:12;;;;;;;63.70;49.10;;;;;;;6.54;74.97;101678.99;108818;1255;139128;-62
2024/03/21 01:29:38;;;;;;;69.90;49.90;;;;;;;6.52;75.08;101678.89;108802;1256;76086;-62
2024/03/21 01:32:05;;;;;;;67.90;51.20;;;;;;;6.54;75.14;101679.34;108900;1256;65351;-62
2024/03/21 01:34:32;;;;;;;63.30;50.90;;;;;;;6.56;75.16;101676.52;108781;1256;138415;-63
2024/03/21 01:36:58;;;;;;;65.10;50.70;;;;;;;6.58;75.15;101670.01;109033;1256;60040;-63
2024/03/21 01:39:27;;;;;;;65.40;51.30;;;;;;;6.63;75.20;101668.35;108929;1256;138365;-63
2024/03/21 01:41:53;;;;;;;61.80;49.30;;;;;;;6.67;75.13;101667.88;105089;1256;75620;-62
2024/03/21 01:44:20;;;;;;;69.10;52.80;;;;;;;6.67;75.11;101664.02;104995;1262;61969;-61
2024/03/21 01:46:47;;;;;;;63.10;51.40;;;;;;;6.67;75.07;101664.75;107668;1256;137967;-62
2024/03/21 01:49:14;;;;;;;66.50;51.40;;;;;;;6.68;75.11;101657.81;105044;1257;62070;-62
2024/03/21 01:51:42;;;;;;;69.10;50.40;;;;;;;6.68;75.22;101651.88;104894;1256;138708;-62
2024/03/21 01:54:10;;;;;;;67.30;50.00;;;;;;;6.67;75.22;101652.86;106702;1257;76547;-62
2024/03/21 01:56:37;;;;;;;66.30;49.80;;;;;;;6.65;75.25;101654.17;104964;1257;65768;-62
2024/03/21 01:59:04;;;;;;;66.10;48.80;;;;;;;6.65;75.28;101649.11;104685;1262;140151;-61
2024/03/21 02:01:32;;;;;;;66.30;49.20;;;;;;;6.63;75.22;101643.23;107216;1259;60867;-61
2024/03/21 02:04:00;;;;;;;61.30;48.30;;;;;;;6.63;75.25;101640.61;104647;1259;140677;-61
2024/03/21 02:06:28;;;;;;;65.30;48.70;;;;;;;6.60;75.31;101637.14;104651;1257;75843;-61
2024/03/21 02:08:54;;;;;;;62.30;48.10;;;;;;;6.56;75.19;101636.61;109096;1256;67290;-62
2024/03/21 02:11:22;;;;;;;64.40;49.00;;;;;;;6.54;75.37;101640.14;108921;1256;138231;-62
2024/03/21 02:13:49;;;;;;;64.20;50.10;;;;;;;6.54;75.42;101642.22;108804;1256;59926;-62
2024/03/21 02:16:15;;;;;;;66.50;51.30;;;;;;;6.50;75.42;101645.48;106819;1259;139172;-61
2024/03/21 02:18:42;;;;;;;67.00;52.50;;;;;;;6.45;75.58;101644.88;104879;1257;76099;-61
2024/03/21 02:23:55;;;;;;;68.70;50.90;;;;;;;6.38;75.95;101639.79;108865;1256;74039;-63
2024/03/21 02:26:22;;;;;;;69.10;53.50;;;;;;;6.37;76.07;101634.48;108940;1256;59772;-62
2024/03/21 02:28:51;;;;;;;66.50;52.00;;;;;;;6.34;76.27;101636.05;108844;1256;139262;-62
2024/03/21 02:31:19;;;;;;;65.90;51.40;;;;;;;6.33;76.32;101631.63;109008;1256;74070;-63
2024/03/21 02:33:46;;;;;;;67.20;51.20;;;;;;;6.31;76.46;101632.71;108909;1256;138791;-63
2024/03/21 02:36:13;;;;;;;67.20;53.20;;;;;;;6.29;76.55;101631.92;108936;1256;71370;-62
2024/03/21 02:38:40;;;;;;;71.80;52.00;;;;;;;6.30;76.66;101632.69;108943;1256;59793;-62
2024/03/21 02:41:07;;;;;;;64.20;49.80;;;;;;;6.30;76.75;101630.27;108820;1256;139065;-62
2024/03/21 02:43:33;;;;;;;66.70;50.70;;;;;;;6.31;76.72;101629.96;107183;1262;74173;-62
2024/03/21 02:46:00;;;;;;;68.50;52.40;;;;;;;6.32;76.85;101635.92;104780;1259;138958;-61
2024/03/21 02:48:27;;;;;;;64.60;49.20;;;;;;;6.34;76.90;101634.82;104813;1261;71515;-62
2024/03/21 02:50:54;;;;;;;67.10;51.60;;;;;;;6.34;77.00;101633.44;108921;1256;59804;-62
2024/03/21 02:53:20;;;;;;;70.60;51.70;;;;;;;6.34;77.04;101626.12;108689;1256;138682;-62
2024/03/21 02:55:47;;;;;;;64.10;50.20;;;;;;;6.36;77.17;101623.14;104743;1257;74938;-62
2024/03/21 02:58:14;;;;;;;67.40;51.90;;;;;;;6.40;77.24;101622.80;104667;1260;139668;-62
2024/03/21 03:00:40;;;;;;;65.40;49.40;;;;;;;6.41;77.19;101623.73;104775;1259;72789;-63
2024/03/21 03:03:07;;;;;;;66.10;50.90;;;;;;;6.43;77.31;101624.89;104735;1258;139509;-62
2024/03/21 03:05:40;;;;;;;65.60;52.00;;;;;;;6.41;77.22;101627.92;104862;1260;62035;-62
2024/03/21 03:08:07;;;;;;;;;;;;;;;6.43;77.39;101634.48;108927;1256;75897;-61
2024/03/21 03:10:35;;;;;;;66.00;50.20;;;;;;;6.43;77.40;101631.85;108643;1258;125302;-63
2024/03/21 03:13:03;;;;;;;69.70;51.90;;;;;;;6.43;77.37;101630.29;108701;1258;71443;-60
2024/03/21 03:15:30;;;;;;;70.50;52.40;;;;;;;6.42;77.40;101625.89;105204;1258;138355;-61
2024/03/21 03:17:56;;;;;;;69.50;52.20;;;;;;;6.44;77.42;101624.58;104893;1261;62274;-62
2024/03/21 03:20:23;;;;;;;67.80;52.50;;;;;;;6.46;77.52;101621.71;104792;1266;75384;-62
2024/03/21 03:22:50;;;;;;;67.30;53.20;;;;;;;6.47;77.45;101624.36;108687;1260;139003;-62
2024/03/21 03:25:17;;;;;;;65.60;51.30;;;;;;;6.45;77.41;101621.81;108855;1257;73767;-63
2024/03/21 03:27:43;;;;;;;66.70;50.70;;;;;;;6.42;77.39;101624.09;108714;1256;138852;-62
2024/03/21 03:30:11;;;;;;;64.40;51.20;;;;;;;6.40;77.46;101623.70;108965;1256;61722;-63
2024/03/21 03:32:47;;;;;;;66.50;51.00;;;;;;;6.42;77.48;101623.79;109063;1256;74207;-62
2024/03/21 03:35:40;;;;;;;70.40;52.20;;;;;;;6.43;77.51;101621.91;108523;1259;138663;-62
2024/03/21 03:38:09;;;;;;;66.40;52.00;;;;;;;6.47;77.56;101618.42;104680;1262;73193;-62
2024/03/21 03:40:36;;;;;;;68.00;50.70;;;;;;;6.49;77.61;101619.27;104680;1263;139443;-61
2024/03/21 03:43:03;;;;;;;65.30;50.60;;;;;;;6.49;77.62;101614.56;104834;1260;62057;-62
2024/03/21 03:45:30;;;;;;;63.80;50.00;;;;;;;6.50;77.57;101614.81;104717;1258;138929;-62
2024/03/21 03:47:56;;;;;;;66.10;49.80;;;;;;;6.51;77.62;101613.28;104828;1266;67379;-62
2024/03/21 03:50:23;;;;;;;63.70;49.70;;;;;;;6.52;77.65;101610.20;104726;1256;72063;-62
2024/03/21 03:52:50;;;;;;;65.10;49.90;;;;;;;6.53;77.73;101608.36;104651;1259;139260;-62
2024/03/21 03:55:16;;;;;;;65.40;49.90;;;;;;;6.52;77.61;101610.20;104784;1257;61985;-62
2024/03/21 03:57:43;;;;;;;67.50;52.50;;;;;;;6.49;77.60;101606.22;104623;1259;138808;-62
2024/03/21 04:00:10;;;;;;;63.90;51.30;;;;;;;6.47;77.55;101603.98;104793;1256;66632;-62
2024/03/21 04:02:38;;;;;;;67.90;53.10;;;;;;;6.46;77.59;101600.62;108990;1256;73841;-62
2024/03/21 04:05:05;;;;;;;69.40;52.20;;;;;;;6.47;77.58;101595.59;108862;1256;138187;-62
2024/03/21 04:07:32;;;;;;;71.40;54.60;;;;;;;6.46;77.54;101593.98;108995;1256;60223;-61
2024/03/21 04:09:59;;;;;;;72.20;54.10;;;;;;;6.45;77.57;101589.93;108613;1257;138757;-61
2024/03/21 04:12:25;;;;;;;73.50;52.30;;;;;;;6.46;77.54;101593.98;108868;1256;64989;-61
2024/03/21 04:14:52;;;;;;;68.70;51.40;;;;;;;6.44;77.45;101597.07;108945;1255;71502;-61
2024/03/21 04:17:19;;;;;;;70.60;51.30;;;;;;;6.42;77.40;101593.48;108774;1257;139175;-61
2024/03/21 04:19:46;;;;;;;68.50;50.60;;;;;;;6.45;77.56;101592.21;108934;1257;60060;-61
2024/03/21 04:22:12;;;;;;;68.30;52.40;;;;;;;6.47;77.50;101597.21;108914;1257;139556;-62
2024/03/21 04:24:42;;;;;;;70.90;52.00;;;;;;;6.49;77.46;101592.75;108998;1257;66275;-62
2024/03/21 04:27:09;;;;;;;67.90;50.10;;;;;;;6.51;77.55;101591.49;105574;1260;139950;-61
2024/03/21 04:29:35;;;;;;;64.40;50.50;;;;;;;6.53;77.49;101595.81;104820;1262;62646;-62
2024/03/21 04:32:02;;;;;;;69.50;50.30;;;;;;;6.55;77.44;101593.48;104934;1262;62045;-62
2024/03/21 04:34:29;;;;;;;68.00;50.80;;;;;;;6.55;77.35;101597.14;104773;1262;139295;-61
2024/03/21 04:36:56;;;;;;;72.00;53.30;;;;;;;6.57;77.44;101597.92;104690;1261;66736;-62
2024/03/21 04:39:23;;;;;;;69.40;51.60;;;;;;;6.57;77.51;101595.85;108806;1259;139801;-62
2024/03/21 04:41:49;;;;;;;70.30;51.70;;;;;;;6.57;77.43;101592.00;108946;1257;59869;-62
2024/03/21 04:44:16;;;;;;;70.40;53.50;;;;;;;6.57;77.43;101588.33;108976;1256;61230;-63
2024/03/21 04:46:42;;;;;;;68.30;51.80;;;;;;;6.57;77.46;101585.19;108621;1257;138131;-62
2024/03/21 04:49:09;;;;;;;66.20;51.60;;;;;;;6.57;77.43;101583.46;104960;1257;64147;-62
2024/03/21 04:51:35;;;;;;;73.80;53.90;;;;;;;6.58;77.43;101589.07;104602;1257;138287;-62
2024/03/21 04:54:02;;;;;;;67.40;51.60;;;;;;;6.57;77.43;101585.90;104669;1262;62177;-62
2024/03/21 04:56:29;;;;;;;69.40;53.70;;;;;;;6.58;77.46;101583.31;104717;1263;60844;-62
2024/03/21 04:58:55;;;;;;;71.70;52.70;;;;;;;6.57;77.45;101585.56;104591;1262;138871;-62
2024/03/21 05:01:22;;;;;;;68.30;53.10;;;;;;;6.55;77.40;101585.63;104715;1262;67522;-62
2024/03/21 05:03:48;;;;;;;72.70;52.60;;;;;;;6.55;77.49;101582.48;104763;1260;138696;-62
2024/03/21 05:06:15;;;;;;;71.70;52.30;;;;;;;6.56;77.51;101583.42;104863;1263;62143;-62
2024/03/21 05:08:41;;;;;;;68.30;52.00;;;;;;;6.57;77.51;101582.92;104804;1261;61946;-63
2024/03/21 05:11:08;;;;;;;73.20;53.30;;;;;;;6.58;77.42;101583.51;104725;1260;139117;-63
2024/03/21 05:13:34;;;;;;;71.70;51.60;;;;;;;6.60;77.49;101579.61;104809;1262;62247;-62
2024/03/21 05:16:01;;;;;;;69.60;50.90;;;;;;;6.61;77.43;101580.73;104693;1256;139209;-62
2024/03/21 05:18:27;;;;;;;68.00;51.50;;;;;;;6.59;77.32;101580.08;104780;1262;62144;-63
2024/03/21 05:20:54;;;;;;;70.40;53.60;;;;;;;6.57;77.28;101579.46;104929;1261;62093;-63
2024/03/21 05:23:20;;;;;;;72.80;53.60;;;;;;;6.58;77.30;101580.89;104786;1261;137864;-63
2024/03/21 05:25:47;;;;;;;74.30;53.70;;;;;;;6.58;77.36;101581.62;104862;1258;62119;-63
2024/03/21 05:28:13;;;;;;;70.20;54.80;;;;;;;6.58;77.29;101580.58;104746;1262;138548;-63
2024/03/21 05:30:40;;;;;;;74.60;53.70;;;;;;;6.59;77.32;101579.89;104761;1260;62133;-62
2024/03/21 05:33:08;;;;;;;71.10;51.80;;;;;;;6.58;77.25;101580.52;104718;1269;139014;-62
2024/03/21 05:35:34;;;;;;;70.70;52.70;;;;;;;6.58;77.26;101577.73;104746;1261;76142;-62
2024/03/21 05:38:01;;;;;;;74.40;52.80;;;;;;;6.58;77.25;101574.95;104850;1260;62038;-62
2024/03/21 05:40:28;;;;;;;74.50;53.70;;;;;;;6.59;77.31;101579.56;104686;1257;139726;-62
2024/03/21 05:42:54;;;;;;;75.60;55.00;;;;;;;6.61;77.24;101581.58;104747;1257;62198;-61
2024/03/21 05:45:20;;;;;;;71.90;52.40;;;;;;;6.62;77.19;101581.11;104815;1261;139034;-62
2024/03/21 05:47:47;;;;;;;78.20;56.60;;;;;;;6.64;77.20;101579.44;104856;1256;60773;-61
2024/03/21 05:50:13;;;;;;;79.40;57.50;;;;;;;6.66;77.23;101575.71;104762;1260;62184;-63
2024/03/21 05:52:42;;;;;;;77.00;56.40;;;;;;;6.68;77.19;101572.49;104653;1261;139422;-62
2024/03/21 05:55:08;;;;;;;75.50;52.80;;;;;;;6.67;77.05;101571.28;104832;1258;62122;-62
2024/03/21 05:57:36;;;;;;;76.80;54.90;;;;;;;6.66;77.02;101567.70;104913;1262;138684;-62
2024/03/21 06:00:16;;;;;;;70.50;52.30;;;;;;;6.67;77.08;101569.85;104866;1260;76062;-62
2024/03/21 06:02:43;;;;;;;73.80;53.00;;;;;;;6.68;77.12;101569.89;104769;1260;66416;-62
2024/03/21 06:05:09;;;;;;;75.50;54.80;;;;;;;6.69;77.07;101574.31;104629;1263;138759;-63
2024/03/21 06:07:36;;;;;;;75.80;54.10;;;;;;;6.70;77.11;101571.77;104994;1257;62116;-62
2024/03/21 06:10:03;;;;;;;74.30;53.60;;;;;;;6.72;77.10;101574.11;104616;1257;139118;-62
2024/03/21 06:12:29;;;;;;;72.30;52.30;;;;;;;6.70;77.06;101568.81;104885;1263;75530;-62
2024/03/21 06:14:56;;;;;;;67.20;51.60;;;;;;;6.72;77.06;101566.14;104953;1262;62166;-69
2024/03/21 06:17:23;;;;;;;79.70;52.10;;;;;;;6.73;77.01;101561.64;104829;1263;72515;-67
2024/03/21 06:19:50;;;;;;;75.10;51.90;;;;;;;6.74;77.02;101563.46;104831;1261;62618;-67
2024/03/21 06:22:16;;;;;;;72.20;51.90;;;;;;;6.76;77.03;101562.68;104769;1260;138821;-67
2024/03/21 06:24:43;;;;;;;68.70;50.70;;;;;;;6.79;76.94;101563.35;104683;1263;62146;-67
2024/03/21 06:27:10;;;;;;;70.20;51.70;;;;;;;6.82;77.18;101561.59;104701;1257;139522;-66
2024/03/21 06:29:37;;;;;;;74.30;52.80;;;;;;;6.86;77.03;101559.37;104689;1262;73110;-66
2024/03/21 06:32:05;;;;;;;74.20;54.00;;;;;;;6.90;76.91;101558.55;105059;1260;62040;-68
2024/03/21 06:34:32;;;;;;;69.10;50.60;;;;;;;6.94;77.01;101555.79;105873;1260;138013;-67
2024/03/21 06:36:59;;;;;;;69.90;51.90;;;;;;;7.00;76.94;101554.36;104834;1257;75980;-67
2024/03/21 06:39:25;;;;;;;72.50;52.10;;;;;;;7.04;76.90;101551.40;105452;1257;138630;-67
2024/03/21 06:41:52;;;;;;;70.40;51.50;;;;;;;7.07;76.87;101550.70;108948;1257;73866;-68
2024/03/21 06:44:19;;;;;;;72.00;51.40;;;;;;;7.08;76.69;101550.02;108890;1257;60387;-67
2024/03/21 06:46:46;;;;;;;65.60;47.60;;;;;;;7.06;76.59;101550.95;108681;1257;138763;-68
2024/03/21 06:49:12;;;;;;;67.30;50.00;;;;;;;7.06;76.62;101555.86;108916;1257;60504;-68
2024/03/21 06:51:38;;;;;;;70.70;48.90;;;;;;;7.07;76.50;101557.64;108848;1257;139374;-68
2024/03/21 06:54:05;;;;;;;69.40;49.00;;;;;;;7.08;76.57;101554.95;105077;1261;62128;-67
2024/03/21 06:56:32;;;;;;;74.20;49.60;;;;;;;7.10;76.51;101553.13;106172;1258;62729;-68
2024/03/21 06:58:59;;;;;;;71.40;52.10;;;;;;;7.12;76.46;101555.98;104924;1262;139183;-68
2024/03/21 07:01:25;;;;;;;71.00;49.70;;;;;;;7.13;76.57;101551.52;104650;1264;75319;-67
2024/03/21 07:03:53;;;;;;;67.50;48.80;;;;;;;7.17;76.68;101552.08;104554;1261;139113;-67
2024/03/21 07:06:21;;;;;;;71.50;49.40;;;;;;;7.23;76.71;101552.03;104712;1260;73140;-67
2024/03/21 07:08:47;;;;;;;66.40;48.60;;;;;;;7.24;76.70;101547.00;104771;1259;62180;-67
2024/03/21 07:11:14;;;;;;;62.50;47.20;;;;;;;7.32;76.87;101545.19;104648;1260;138989;-67
2024/03/21 07:13:40;;;;;;;68.60;47.90;;;;;;;7.39;76.77;101542.75;104609;1261;62045;-67
2024/03/21 07:16:06;;;;;;;65.40;49.30;;;;;;;7.45;76.80;101546.01;104866;1260;138200;-65
2024/03/21 07:18:33;;;;;;;62.20;46.00;;;;;;;7.49;76.60;101542.85;104884;1260;61164;-64
2024/03/21 07:20:59;;;;;;;65.70;50.20;;;;;;;7.48;76.46;101544.92;104810;1260;62096;-64
2024/03/21 07:23:26;;;;;;;67.40;50.00;;;;;;;7.45;76.45;101546.17;104882;1257;138577;-65
2024/03/21 07:25:53;;;;;;;65.90;47.60;;;;;;;7.41;76.43;101548.39;104937;1258;76036;-64
2024/03/21 07:28:19;;;;;;;59.60;43.90;;;;;;;7.35;76.31;101546.86;104726;1260;139288;-64
2024/03/21 07:30:53;;;;;;;61.50;43.20;;;;;;;7.29;76.51;101548.65;104937;1260;62115;-64
2024/03/21 07:33:20;;;;;;;59.10;42.00;;;;;;;7.25;76.61;101548.63;105860;1257;138914;-64
2024/03/21 07:35:57;;;;;;;60.00;41.40;;;;;;;7.22;76.68;101548.98;104844;1270;62064;-65
2024/03/21 07:38:23;;;;;;;60.90;43.40;;;;;;;7.23;76.93;101546.10;104926;1256;74573;-65
2024/03/21 07:40:54;;;;;;;58.20;42.10;;;;;;;7.28;77.02;101537.47;104712;1257;138813;-66
2024/03/21 07:43:21;;;;;;;55.90;40.80;;;;;;;7.34;77.11;101536.37;104783;1258;71242;-65
2024/03/21 07:45:47;;;;;;;61.90;42.30;;;;;;;7.40;77.30;101533.67;108835;1257;139010;-65
2024/03/21 07:48:14;;;;;;;60.70;44.10;;;;;;;7.45;77.30;101533.06;109048;1257;59849;-64
2024/03/21 07:50:40;;;;;;;56.70;42.40;;;;;;;7.49;77.14;101532.58;109026;1257;60310;-66
2024/03/21 07:53:07;;;;;;;62.20;41.80;;;;;;;7.54;77.29;101535.98;108879;1256;138101;-65
2024/03/21 07:55:33;;;;;;;59.30;45.00;;;;;;;7.60;77.23;101534.15;108990;1256;59945;-65
2024/03/21 07:58:00;;;;;;;59.80;44.00;;;;;;;7.65;77.18;101535.11;108858;1257;137911;-66
2024/03/21 08:00:30;;;;;;;60.40;43.50;;;;;;;7.68;77.12;101537.00;108878;1256;59945;-66
2024/03/21 08:02:57;;;;;;;64.40;43.20;;;;;;;7.70;77.13;101540.60;104760;1260;76166;-65
2024/03/21 08:05:23;;;;;;;56.50;41.60;;;;;;;7.73;77.16;101535.31;108832;1257;139124;-66
2024/03/21 08:07:50;;;;;;;58.10;40.90;;;;;;;7.76;77.08;101542.82;108901;1257;59876;-66
2024/03/21 08:10:17;;;;;;;58.30;40.50;;;;;;;7.79;77.06;101541.73;107121;1260;139467;-66
2024/03/21 08:12:43;;;;;;;57.50;40.80;;;;;;;7.81;77.00;101540.06;105097;1263;62055;-66
2024/03/21 08:15:10;;;;;;;56.60;40.00;;;;;;;7.83;76.92;101541.55;104813;1257;138989;-66
2024/03/21 08:17:36;;;;;;;59.30;41.10;;;;;;;7.87;77.03;101540.88;104939;1257;60763;-65
2024/03/21 08:20:04;;;;;;;55.90;39.60;;;;;;;7.90;76.96;101543.15;105013;1257;72924;-65
2024/03/21 08:22:31;;;;;;;55.30;39.20;;;;;;;7.96;77.02;101543.94;108866;1256;138753;-66
2024/03/21 08:24:58;;;;;;;53.00;39.40;;;;;;;8.03;77.04;101550.58;108966;1257;59879;-65
2024/03/21 08:27:24;;;;;;;57.30;41.40;;;;;;;8.10;77.05;101548.44;108896;1256;138072;-68
2024/03/21 08:29:51;;;;;;;61.60;42.90;;;;;;;8.16;76.84;101546.48;108942;1256;60011;-66
2024/03/21 08:32:18;;;;;;;60.00;42.00;;;;;;;8.21;76.82;101544.59;108895;1257;71707;-66
2024/03/21 08:34:45;;;;;;;57.70;42.10;;;;;;;8.27;76.86;101543.31;108576;1257;138149;-66
2024/03/21 08:37:11;;;;;;;60.00;42.60;;;;;;;8.32;76.69;101540.60;108626;1257;307629;-66
2024/03/21 08:39:38;;;;;;;56.20;40.60;;;;;;;8.35;76.53;101544.75;108793;1258;139501;-66
2024/03/21 08:42:05;;;;;;;54.60;40.20;;;;;;;8.37;76.39;101541.85;108915;1257;59834;-64
2024/03/21 08:44:31;;;;;;;57.40;39.30;;;;;;;8.38;76.32;101539.45;108781;1257;71469;-64
2024/03/21 08:46:58;;;;;;;54.40;39.70;;;;;;;8.40;76.28;101542.35;106925;1257;138628;-66
2024/03/21 08:49:24;;;;;;;54.60;38.90;;;;;;;8.44;76.23;101544.30;104980;1260;61985;-65
2024/03/21 08:51:51;;;;;;;54.80;38.80;;;;;;;8.48;76.11;101545.36;104643;1262;139028;-66
2024/03/21 08:54:17;;;;;;;55.10;40.40;;;;;;;8.48;76.07;101545.18;104867;1259;65847;-66
2024/03/21 08:56:44;;;;;;;56.90;38.30;;;;;;;8.48;76.06;101548.33;104754;1261;62489;-65
2024/03/21 08:59:10;;;;;;;58.80;39.80;;;;;;;8.46;75.86;101550.73;104771;1258;138088;-65
2024/03/21 09:01:37;;;;;;;56.50;39.70;;;;;;;8.46;75.96;101547.73;104763;1258;62161;-65
2024/03/21 09:04:04;;;;;;;52.40;38.50;;;;;;;8.46;75.85;101547.55;104651;1257;138245;-66
2024/03/21 09:06:31;;;;;;;55.70;38.90;;;;;;;8.44;75.74;101545.35;104890;1260;64179;-66
2024/03/21 09:08:57;;;;;;;58.90;40.90;;;;;;;8.43;75.71;101546.86;104797;1256;71172;-66
2024/03/21 09:11:24;;;;;;;63.40;41.50;;;;;;;8.39;75.65;101545.09;104674;1258;138040;-66
2024/03/21 09:13:50;;;;;;;61.20;42.00;;;;;;;8.37;75.77;101542.60;104800;1261;62068;-66
2024/03/21 09:16:17;;;;;;;64.70;44.00;;;;;;;8.35;75.69;101542.67;104670;1258;138666;-66
2024/03/21 09:18:44;;;;;;;68.60;46.00;;;;;;;8.35;75.68;101541.23;104692;1258;61947;-66
2024/03/21 09:21:12;;;;;;;67.20;46.40;;;;;;;8.35;75.83;101536.16;104603;1258;139635;-66
2024/03/21 09:23:39;;;;;;;65.10;45.90;;;;;;;8.35;75.64;101536.20;107672;1260;62161;-64
2024/03/21 09:26:05;;;;;;;53.60;40.10;;;;;;;8.38;75.61;101538.58;104763;1258;62137;-64
2024/03/21 09:28:32;;;;;;;57.30;41.20;;;;;;;8.42;75.61;101537.00;104752;1261;138168;-64
2024/03/21 09:30:59;;;;;;;56.00;40.00;;;;;;;8.44;75.61;101532.95;104867;1260;61978;-65
2024/03/21 09:33:25;;;;;;;51.80;38.30;;;;;;;8.49;75.73;101529.52;104733;1261;138147;-65
2024/03/21 09:35:58;;;;;;;48.10;37.20;;;;;;;8.61;76.00;101521.27;104847;1260;62171;-65
2024/03/21 09:38:25;;;;;;;50.50;35.70;;;;;;;8.79;76.05;101515.98;108957;1256;59939;-64
2024/03/21 09:40:52;;;;;;;45.50;35.40;;;;;;;8.97;76.03;101513.62;108895;1256;138630;-65
2024/03/21 09:43:18;;;;;;;44.60;33.60;;;;;;;9.15;75.99;101508.98;108968;1257;65835;-65
2024/03/21 09:45:45;;;;;;;43.10;31.70;;;;;;;9.37;75.88;101502.20;108798;1256;138885;-65
2024/03/21 09:48:12;;;;;;;48.60;34.30;;;;;;;9.59;75.78;101496.99;104881;1272;62355;-65
2024/03/21 09:50:42;;;;;;;48.30;34.00;;;;;;;9.82;75.59;101498.58;104791;1257;62895;-66
2024/03/21 09:53:11;;;;;;;43.80;34.50;;;;;;;10.02;75.35;101494.83;104600;1256;138907;-65
2024/03/21 09:55:38;;;;;;;42.60;32.60;;;;;;;10.19;75.27;101490.21;108901;1256;64940;-65
2024/03/21 09:58:05;;;;;;;43.60;32.70;;;;;;;10.32;74.99;101488.27;108776;1256;138291;-65
2024/03/21 10:00:32;;;;;;;45.20;34.00;;;;;;;10.45;74.96;101485.64;105199;1256;62064;-65
2024/03/21 10:02:58;;;;;;;43.90;33.40;;;;;;;10.57;74.71;101484.33;104824;1260;62103;-64
2024/03/21 10:05:25;;;;;;;42.30;31.80;;;;;;;10.65;74.58;101483.04;108827;1256;138066;-65
2024/03/21 10:07:51;;;;;;;41.00;31.90;;;;;;;10.75;74.43;101477.39;108971;1256;59768;-65
2024/03/21 10:10:18;;;;;;;42.50;32.60;;;;;;;10.82;74.24;101472.38;108837;1256;138057;-65
2024/03/21 10:12:46;;;;;;;39.40;31.80;;;;;;;10.95;74.50;101469.00;108979;1256;60008;-65
2024/03/21 10:15:12;;;;;;;41.10;31.50;;;;;;;11.15;74.52;101469.00;108903;1255;139260;-65
2024/03/21 10:17:39;;;;;;;42.40;32.50;;;;;;;11.36;74.26;101466.15;107488;1258;62509;-66
2024/03/21 10:20:06;;;;;;;37.50;30.40;;;;;;;11.47;73.84;101466.37;104760;1264;66678;-65
2024/03/21 10:22:32;;;;;;;38.10;30.30;;;;;;;11.54;73.44;101462.68;108755;1256;140392;-66
2024/03/21 10:25:03;;;;;;;40.10;32.40;;;;;;;11.61;73.31;101456.59;109042;1255;59786;-66
2024/03/21 10:27:30;;;;;;;38.80;31.20;;;;;;;11.71;73.41;101460.26;108920;1255;139403;-65
2024/03/21 10:29:57;;;;;;;41.00;31.60;;;;;;;11.86;73.41;101457.91;106593;1256;75586;-65
2024/03/21 10:32:24;;;;;;;38.00;30.60;;;;;;;11.97;73.20;101455.14;104803;1262;65539;-65
2024/03/21 10:34:54;;;;;;;40.90;31.00;;;;;;;12.03;73.11;101455.30;108700;1257;138401;-65
2024/03/21 10:37:21;;;;;;;39.80;30.90;;;;;;;12.10;72.89;101446.70;108906;1257;59631;-66
2024/03/21 10:39:50;;;;;;;36.80;30.50;;;;;;;12.11;72.60;101449.58;108825;1257;138604;-66
2024/03/21 10:42:27;;;;;;;39.40;30.10;;;;;;;12.09;72.32;101447.55;108891;1257;76406;-66
2024/03/21 10:45:04;;;;;;;40.30;31.40;;;;;;;11.97;71.99;101447.04;108831;1257;65404;-66
2024/03/21 10:47:31;;;;;;;41.00;32.40;;;;;;;11.73;71.56;101444.33;108923;1256;70485;-66
2024/03/21 10:49:58;;;;;;;40.70;31.50;;;;;;;11.47;71.31;101444.91;108947;1256;59813;-66
2024/03/21 10:52:24;;;;;;;39.30;30.40;;;;;;;11.27;71.56;101443.20;109002;1256;138068;-66
2024/03/21 10:54:51;;;;;;;38.50;31.20;;;;;;;11.21;72.01;101439.46;109026;1256;59743;-66
2024/03/21 10:57:22;;;;;;;39.80;31.80;;;;;;;11.09;71.63;101443.31;108874;1256;138361;-66
2024/03/21 11:00:02;;;;;;;40.50;32.30;;;;;;;10.85;71.39;101448.80;108977;1256;72140;-66
2024/03/21 11:02:29;;;;;;;48.60;34.60;;;;;;;10.63;71.47;101452.23;108991;1256;59780;-66
2024/03/21 11:04:55;;;;;;;47.10;33.70;;;;;;;10.39;71.44;101447.31;108310;1261;138348;-66
2024/03/21 11:07:22;;;;;;;47.90;34.40;;;;;;;10.19;71.69;101443.23;104862;1257;76209;-66